createdAt,value
2017-10-26T00:01:03.031Z,64.70
2017-10-26T00:03:30.583Z,64.43
2017-10-26T00:05:58.303Z,64.32
2017-10-26T00:08:25.831Z,64.86
2017-10-26T00:10:53.363Z,64.52
2017-10-26T00:13:21.332Z,64.58
2017-10-26T00:15:48.859Z,64.46
2017-10-26T00:18:16.457Z,64.53
2017-10-26T00:20:45.036Z,64.98
2017-10-26T00:23:12.565Z,65.57
2017-10-26T00:25:40.085Z,66.61
2017-10-26T00:28:07.915Z,66.03
2017-10-26T00:30:35.477Z,66.00
2017-10-26T00:33:03.009Z,66.42
2017-10-26T00:35:31.104Z,67.87
2017-10-26T00:37:58.663Z,68.94
2017-10-26T00:40:26.234Z,68.26
2017-10-26T00:42:53.991Z,68.23
2017-10-26T00:45:21.515Z,67.69
2017-10-26T00:47:49.044Z,67.81
2017-10-26T00:50:16.885Z,68.09
2017-10-26T00:52:44.428Z,67.95
2017-10-26T00:55:11.988Z,69.44
2017-10-26T00:57:39.642Z,68.97
2017-10-26T01:00:07.164Z,68.51
2017-10-26T01:02:34.688Z,68.65
2017-10-26T01:05:02.255Z,69.70
2017-10-26T01:07:29.807Z,70.88
2017-10-26T01:09:57.334Z,70.40
2017-10-26T01:12:24.904Z,69.98
2017-10-26T01:14:52.461Z,69.03
2017-10-26T01:17:20.443Z,68.97
2017-10-26T01:19:47.994Z,68.97
2017-10-26T01:22:15.546Z,69.25
2017-10-26T01:24:43.106Z,68.73
2017-10-26T01:27:11.689Z,68.85
2017-10-26T01:29:39.250Z,68.85
2017-10-26T01:32:06.835Z,68.85
2017-10-26T01:34:34.550Z,69.20
2017-10-26T01:37:02.071Z,69.78
2017-10-26T01:39:29.690Z,69.23
2017-10-26T01:41:57.352Z,69.36
2017-10-26T01:44:24.887Z,69.43
2017-10-26T01:46:52.411Z,69.29
2017-10-26T01:49:20.849Z,68.97
2017-10-26T01:51:48.407Z,69.06
2017-10-26T01:54:15.967Z,68.91
2017-10-26T01:56:43.555Z,68.17
2017-10-26T01:59:11.095Z,67.78
2017-10-26T02:01:38.643Z,67.74
2017-10-26T02:04:06.407Z,67.94
2017-10-26T02:06:33.948Z,67.77
2017-10-26T02:09:01.524Z,68.51
2017-10-26T02:11:29.289Z,68.59
2017-10-26T02:13:56.848Z,67.95
2017-10-26T02:16:24.408Z,67.80
2017-10-26T02:18:52.172Z,67.62
2017-10-26T02:21:19.732Z,68.07
2017-10-26T02:23:47.290Z,67.79
2017-10-26T02:26:15.053Z,67.96
2017-10-26T02:28:54.616Z,67.62
2017-10-26T02:31:34.052Z,68.65
2017-10-26T02:34:01.591Z,67.70
2017-10-26T02:36:29.150Z,67.41
2017-10-26T02:38:56.913Z,67.65
2017-10-26T02:41:24.453Z,68.34
2017-10-26T02:43:51.977Z,68.70
2017-10-26T02:46:19.796Z,69.08
2017-10-26T02:48:48.276Z,69.46
2017-10-26T02:51:15.819Z,69.58
2017-10-26T02:53:43.599Z,70.93
2017-10-26T02:56:11.158Z,70.97
2017-10-26T02:58:38.718Z,70.34
2017-10-26T03:01:06.481Z,70.82
2017-10-26T03:03:34.020Z,70.82
2017-10-26T03:06:01.543Z,71.46
2017-10-26T03:08:29.575Z,71.81
2017-10-26T03:10:57.128Z,71.27
2017-10-26T03:13:24.686Z,71.26
2017-10-26T03:15:52.451Z,70.98
2017-10-26T03:18:20.009Z,71.67
2017-10-26T03:20:47.569Z,72.50
2017-10-26T03:23:15.332Z,73.04
2017-10-26T03:25:42.893Z,73.76
2017-10-26T03:28:10.463Z,73.52
2017-10-26T03:30:38.411Z,74.33
2017-10-26T03:33:05.980Z,74.21
2017-10-26T03:35:33.538Z,75.59
2017-10-26T03:38:01.507Z,75.53
2017-10-26T03:40:29.474Z,75.11
2017-10-26T03:42:57.050Z,75.05
2017-10-26T03:45:24.887Z,74.63
2017-10-26T03:47:53.284Z,74.08
2017-10-26T03:50:20.839Z,74.75
2017-10-26T03:52:48.419Z,74.38
2017-10-26T03:55:15.959Z,73.55
2017-10-26T03:57:43.515Z,73.82
2017-10-26T04:00:11.262Z,73.81
2017-10-26T04:02:38.798Z,73.84
2017-10-26T04:05:07.114Z,72.88
2017-10-26T04:07:34.881Z,71.60
2017-10-26T04:10:02.438Z,71.62
2017-10-26T04:12:29.999Z,71.25
2017-10-26T04:14:57.760Z,71.04
2017-10-26T04:17:25.321Z,71.41
2017-10-26T04:19:52.879Z,71.13
2017-10-26T04:22:20.622Z,70.84
2017-10-26T04:24:48.144Z,70.55
2017-10-26T04:27:15.673Z,70.39
2017-10-26T04:29:44.139Z,70.61
2017-10-26T04:32:11.676Z,71.79
2017-10-26T04:34:39.211Z,70.64
2017-10-26T04:37:07.021Z,71.48
2017-10-26T04:39:34.581Z,71.06
2017-10-26T04:42:02.107Z,70.58
2017-10-26T04:44:29.906Z,70.74
2017-10-26T04:46:57.443Z,71.47
2017-10-26T04:49:24.975Z,70.73
2017-10-26T04:51:52.686Z,72.26
2017-10-26T04:54:20.242Z,72.08
2017-10-26T04:56:47.801Z,70.72
2017-10-26T04:59:15.979Z,71.12
2017-10-26T05:01:44.457Z,72.23
2017-10-26T05:04:12.018Z,72.06
2017-10-26T05:06:39.781Z,71.50
2017-10-26T05:09:07.337Z,72.41
2017-10-26T05:11:34.904Z,72.65
2017-10-26T05:14:02.752Z,73.54
2017-10-26T05:16:30.323Z,72.61
2017-10-26T05:18:57.882Z,73.31
2017-10-26T05:21:25.646Z,72.95
2017-10-26T05:23:53.614Z,73.49
2017-10-26T05:26:21.133Z,72.42
2017-10-26T05:28:48.731Z,71.99
2017-10-26T05:31:16.909Z,72.59
2017-10-26T05:33:44.464Z,72.21
2017-10-26T05:36:12.229Z,72.53
2017-10-26T05:38:40.237Z,72.46
2017-10-26T05:41:07.780Z,72.12
2017-10-26T05:43:35.368Z,71.95
2017-10-26T05:46:02.899Z,72.12
2017-10-26T05:48:30.438Z,72.54
2017-10-26T05:50:58.021Z,72.03
2017-10-26T05:53:25.571Z,73.24
2017-10-26T05:55:53.112Z,72.35
2017-10-26T05:58:20.876Z,73.56
2017-10-26T06:00:48.452Z,73.52
2017-10-26T06:03:15.996Z,73.79
2017-10-26T06:05:43.843Z,73.42
2017-10-26T06:08:11.419Z,72.91
2017-10-26T06:10:38.978Z,72.34
2017-10-26T06:13:06.679Z,73.85
2017-10-26T06:15:34.220Z,73.58
2017-10-26T06:18:02.271Z,74.64
2017-10-26T06:20:29.846Z,75.34
2017-10-26T06:22:57.388Z,73.63
2017-10-26T06:25:24.948Z,74.54
2017-10-26T06:27:52.918Z,75.43
2017-10-26T06:30:20.475Z,75.68
2017-10-26T06:32:48.016Z,74.18
2017-10-26T06:35:15.779Z,74.31
2017-10-26T06:37:43.363Z,74.06
2017-10-26T06:40:10.917Z,74.09
2017-10-26T06:42:38.885Z,74.20
2017-10-26T06:45:06.444Z,74.32
2017-10-26T06:47:33.971Z,73.77
2017-10-26T06:50:01.854Z,74.09
2017-10-26T06:52:29.430Z,73.50
2017-10-26T06:54:56.963Z,74.71
2017-10-26T06:57:24.547Z,73.32
2017-10-26T06:59:52.515Z,73.48
2017-10-26T07:02:20.043Z,71.71
2017-10-26T07:04:47.819Z,73.80
2017-10-26T07:07:15.352Z,73.17
2017-10-26T07:09:42.893Z,74.18
2017-10-26T07:12:10.566Z,74.95
2017-10-26T07:14:38.111Z,74.17
2017-10-26T07:17:05.637Z,73.89
2017-10-26T07:19:33.383Z,72.56
2017-10-26T07:22:00.924Z,73.03
2017-10-26T07:24:28.450Z,71.86
2017-10-26T07:26:56.191Z,72.04
2017-10-26T07:29:23.718Z,71.77
2017-10-26T07:31:51.297Z,69.99
2017-10-26T07:34:19.062Z,71.29
2017-10-26T07:36:46.632Z,70.77
2017-10-26T07:39:14.178Z,70.11
2017-10-26T07:41:42.149Z,70.81
2017-10-26T07:44:09.773Z,69.43
2017-10-26T07:46:37.301Z,69.90
2017-10-26T07:49:05.644Z,69.12
2017-10-26T07:51:33.172Z,68.35
2017-10-26T07:54:00.762Z,65.91
2017-10-26T07:56:28.455Z,64.60
2017-10-26T07:58:55.987Z,63.77
2017-10-26T08:01:23.520Z,63.34
2017-10-26T08:03:51.088Z,63.57
2017-10-26T08:06:19.069Z,66.01
2017-10-26T08:08:46.629Z,65.36
2017-10-26T08:11:14.391Z,65.96
2017-10-26T08:13:42.003Z,65.02
2017-10-26T08:16:09.527Z,65.20
2017-10-26T08:18:37.211Z,66.23
2017-10-26T08:21:04.732Z,64.42
2017-10-26T08:23:32.394Z,62.08
2017-10-26T08:25:59.964Z,60.95
2017-10-26T08:28:27.500Z,59.79
2017-10-26T08:30:55.067Z,60.27
2017-10-26T08:33:22.813Z,58.89
2017-10-26T08:35:50.335Z,59.32
2017-10-26T08:38:18.772Z,61.63
2017-10-26T08:40:46.346Z,60.84
2017-10-26T08:43:13.873Z,62.46
2017-10-26T08:45:41.393Z,62.92
2017-10-26T08:48:09.532Z,61.68
2017-10-26T08:50:37.069Z,63.33
2017-10-26T08:53:04.591Z,63.17
2017-10-26T08:55:32.300Z,62.09
2017-10-26T08:57:59.859Z,63.98
2017-10-26T09:00:27.419Z,63.32
2017-10-26T09:02:55.181Z,62.56
2017-10-26T09:05:22.740Z,61.25
2017-10-26T09:07:50.291Z,59.26
2017-10-26T09:10:17.858Z,54.09
2017-10-26T09:12:45.420Z,45.28
2017-10-26T09:15:12.978Z,40.83
2017-10-26T09:17:41.663Z,38.92
2017-10-26T09:20:09.223Z,34.50
2017-10-26T09:22:36.797Z,32.02
2017-10-26T09:25:04.653Z,32.83
2017-10-26T09:27:32.784Z,30.58
2017-10-26T09:30:00.381Z,31.42
2017-10-26T09:32:28.127Z,30.37
2017-10-26T09:34:55.649Z,28.06
2017-10-26T09:37:23.185Z,28.95
2017-10-26T09:39:51.232Z,27.89
2017-10-26T09:42:18.791Z,28.63
2017-10-26T09:44:46.315Z,26.78
2017-10-26T09:47:13.990Z,25.79
2017-10-26T09:49:42.391Z,28.00
2017-10-26T09:52:09.950Z,25.65
2017-10-26T09:54:37.508Z,24.12
2017-10-26T09:57:05.066Z,24.08
2017-10-26T09:59:32.626Z,24.80
2017-10-26T10:02:01.311Z,22.82
2017-10-26T10:04:28.871Z,20.61
2017-10-26T10:06:56.430Z,21.44
2017-10-26T10:09:24.083Z,20.79
2017-10-26T10:11:51.599Z,19.81
2017-10-26T10:14:19.112Z,19.32
2017-10-26T10:16:47.632Z,18.65
2017-10-26T10:19:15.152Z,18.94
2017-10-26T10:21:42.707Z,18.62
2017-10-26T10:24:10.573Z,17.16
2017-10-26T10:26:39.506Z,16.19
2017-10-26T10:29:07.023Z,17.29
2017-10-26T10:31:34.786Z,17.35
2017-10-26T10:34:02.344Z,15.37
2017-10-26T10:36:30.314Z,16.84
2017-10-26T10:38:58.082Z,17.45
2017-10-26T10:41:25.602Z,14.74
2017-10-26T10:43:53.601Z,15.82
2017-10-26T10:46:21.299Z,15.10
2017-10-26T10:48:48.821Z,16.18
2017-10-26T10:51:16.339Z,15.04
2017-10-26T10:53:44.234Z,12.74
2017-10-26T10:56:11.759Z,12.94
2017-10-26T10:58:39.281Z,15.76
2017-10-26T11:01:07.011Z,16.62
2017-10-26T11:03:34.531Z,18.97
2017-10-26T11:06:02.048Z,18.64
2017-10-26T11:08:29.605Z,19.54
2017-10-26T11:10:57.127Z,21.29
2017-10-26T11:13:25.134Z,26.53
2017-10-26T11:15:52.897Z,28.77
2017-10-26T11:18:20.412Z,30.72
2017-10-26T11:20:47.939Z,33.35
2017-10-26T11:23:15.693Z,33.93
2017-10-26T11:25:43.211Z,33.85
2017-10-26T11:28:10.735Z,32.18
2017-10-26T11:30:38.457Z,26.10
2017-10-26T11:33:06.017Z,22.71
2017-10-26T11:35:33.576Z,20.11
2017-10-26T11:38:01.319Z,19.12
2017-10-26T11:40:28.835Z,19.54
2017-10-26T11:42:56.387Z,19.39
2017-10-26T11:45:24.026Z,19.16
2017-10-26T11:47:51.575Z,20.04
2017-10-26T11:50:19.136Z,20.74
2017-10-26T11:52:46.698Z,20.86
2017-10-26T11:55:14.254Z,18.15
2017-10-26T11:57:43.391Z,17.52
2017-10-26T12:00:11.026Z,15.70
2017-10-26T12:02:38.679Z,17.25
2017-10-26T12:05:06.217Z,16.95
2017-10-26T12:07:33.784Z,17.51
2017-10-26T12:10:02.271Z,18.49
2017-10-26T12:12:29.798Z,21.45
2017-10-26T12:14:57.390Z,25.99
2017-10-26T12:17:24.915Z,28.48
2017-10-26T12:19:52.448Z,31.49
2017-10-26T12:22:20.046Z,33.92
2017-10-26T12:24:47.625Z,36.48
2017-10-26T12:27:15.185Z,36.66
2017-10-26T12:29:43.051Z,38.20
2017-10-26T12:32:10.623Z,38.69
2017-10-26T12:34:38.169Z,38.80
2017-10-26T12:37:06.019Z,40.39
2017-10-26T12:39:33.780Z,40.06
2017-10-26T12:42:01.376Z,42.04
2017-10-26T12:44:28.928Z,42.11
2017-10-26T12:46:56.476Z,41.39
2017-10-26T12:49:24.052Z,41.98
2017-10-26T12:51:51.902Z,41.91
2017-10-26T12:54:19.584Z,43.04
2017-10-26T12:56:47.147Z,43.08
2017-10-26T12:59:14.812Z,43.01
2017-10-26T13:01:42.352Z,43.24
2017-10-26T13:04:09.906Z,43.80
2017-10-26T13:06:37.755Z,43.88
2017-10-26T13:09:05.375Z,45.15
2017-10-26T13:11:32.895Z,45.90
2017-10-26T13:14:00.739Z,47.42
2017-10-26T13:16:28.314Z,47.75
2017-10-26T13:18:55.871Z,46.91
2017-10-26T13:21:23.435Z,47.62
2017-10-26T13:23:50.990Z,47.62
2017-10-26T13:26:19.495Z,47.19
2017-10-26T13:28:47.059Z,47.54
2017-10-26T13:31:14.595Z,47.33
2017-10-26T13:33:42.112Z,47.07
2017-10-26T13:36:09.905Z,48.87
2017-10-26T13:38:37.424Z,49.07
2017-10-26T13:41:04.952Z,50.80
2017-10-26T13:43:32.674Z,50.53
2017-10-26T13:46:01.174Z,50.26
2017-10-26T13:48:28.704Z,50.67
2017-10-26T13:50:56.376Z,49.23
2017-10-26T13:53:23.953Z,48.43
2017-10-26T13:55:51.478Z,48.33
2017-10-26T13:58:19.275Z,48.74
2017-10-26T14:00:46.796Z,48.83
2017-10-26T14:03:14.327Z,48.96
2017-10-26T14:05:41.887Z,48.32
2017-10-26T14:08:09.414Z,49.25
2017-10-26T14:10:36.969Z,48.56
2017-10-26T14:13:04.938Z,47.88
2017-10-26T14:15:32.502Z,47.86
2017-10-26T14:18:00.043Z,47.81
2017-10-26T14:20:27.904Z,47.71
2017-10-26T14:22:55.447Z,47.90
2017-10-26T14:25:22.995Z,48.56
2017-10-26T14:27:50.961Z,48.48
2017-10-26T14:30:18.514Z,49.46
2017-10-26T14:32:46.044Z,48.90
2017-10-26T14:35:13.930Z,49.17
2017-10-26T14:37:42.475Z,49.45
2017-10-26T14:40:10.060Z,50.18
2017-10-26T14:42:37.998Z,51.59
2017-10-26T14:45:05.768Z,50.93
2017-10-26T14:47:33.346Z,50.45
2017-10-26T14:50:00.931Z,50.98
2017-10-26T14:52:28.547Z,50.96
2017-10-26T14:54:56.688Z,50.47
2017-10-26T14:57:24.488Z,50.35
2017-10-26T14:59:52.081Z,50.64
2017-10-26T15:02:19.657Z,50.58
2017-10-26T15:04:47.775Z,51.19
2017-10-26T15:07:15.658Z,51.85
2017-10-26T15:09:43.406Z,52.21
2017-10-26T15:12:11.169Z,52.05
2017-10-26T15:14:38.942Z,52.30
2017-10-26T15:17:06.494Z,52.17
2017-10-26T15:19:34.256Z,52.94
2017-10-26T15:22:01.919Z,53.51
2017-10-26T15:24:29.682Z,53.52
2017-10-26T15:26:57.260Z,53.57
2017-10-26T15:29:24.812Z,53.79
2017-10-26T15:31:52.361Z,53.97
2017-10-26T15:34:20.124Z,54.08
2017-10-26T15:36:47.703Z,54.03
2017-10-26T15:39:15.273Z,54.29
2017-10-26T15:41:42.837Z,54.05
2017-10-26T15:44:10.975Z,54.52
2017-10-26T15:46:38.635Z,55.41
2017-10-26T15:49:06.506Z,55.08
2017-10-26T15:51:34.062Z,55.37
2017-10-26T15:54:01.724Z,55.45
2017-10-26T15:56:29.590Z,55.73
2017-10-26T15:58:57.165Z,56.75
2017-10-26T16:01:24.720Z,56.36
2017-10-26T16:03:52.482Z,56.67
2017-10-26T16:06:20.338Z,56.95
2017-10-26T16:08:47.955Z,58.18
2017-10-26T16:11:15.751Z,58.09
2017-10-26T16:13:43.368Z,58.29
2017-10-26T16:16:11.089Z,58.21
2017-10-26T16:18:38.967Z,58.55
2017-10-26T16:21:06.720Z,59.09
2017-10-26T16:23:34.378Z,59.60
2017-10-26T16:26:02.012Z,59.83
2017-10-26T16:28:29.717Z,60.10
2017-10-26T16:30:57.577Z,60.31
2017-10-26T16:33:25.353Z,60.46
2017-10-26T16:35:53.095Z,60.49
2017-10-26T16:38:20.655Z,60.49
2017-10-26T16:40:48.403Z,60.71
2017-10-26T16:43:15.945Z,61.04
2017-10-26T16:45:43.538Z,61.28
2017-10-26T16:48:11.297Z,61.42
2017-10-26T16:50:38.888Z,61.39
2017-10-26T16:53:06.459Z,61.52
2017-10-26T16:55:34.081Z,61.54
2017-10-26T16:58:01.696Z,61.81
2017-10-26T17:00:29.534Z,62.00
2017-10-26T17:02:57.562Z,62.00
2017-10-26T17:05:25.347Z,62.02
2017-10-26T17:07:52.980Z,61.95
2017-10-26T17:10:20.884Z,62.17
2017-10-26T17:12:48.633Z,62.38
2017-10-26T17:15:16.269Z,62.70
2017-10-26T17:17:44.059Z,62.77
2017-10-26T17:20:12.415Z,62.45
2017-10-26T17:22:40.085Z,62.57
2017-10-26T17:25:08.272Z,62.51
2017-10-26T17:27:35.843Z,62.79
2017-10-26T17:30:03.390Z,62.69
2017-10-26T17:32:31.165Z,62.92
2017-10-26T17:34:58.737Z,62.96
2017-10-26T17:37:26.472Z,62.92
2017-10-26T17:39:54.270Z,63.03
2017-10-26T17:42:21.848Z,63.55
2017-10-26T17:44:49.563Z,63.82
2017-10-26T17:47:17.326Z,63.49
2017-10-26T17:49:45.096Z,63.21
2017-10-26T17:52:12.759Z,63.36
2017-10-26T17:54:40.780Z,63.43
2017-10-26T17:57:08.405Z,63.73
2017-10-26T17:59:36.111Z,63.75
2017-10-26T18:02:04.137Z,63.63
2017-10-26T18:04:31.984Z,63.82
2017-10-26T18:06:59.815Z,63.67
2017-10-26T18:09:27.658Z,64.97
2017-10-26T18:11:55.396Z,64.70
2017-10-26T18:14:23.143Z,64.75
2017-10-26T18:16:51.225Z,64.49
2017-10-26T18:19:19.797Z,65.15
2017-10-26T18:21:47.577Z,65.34
2017-10-26T18:24:15.633Z,64.92
2017-10-26T18:26:43.292Z,64.53
2017-10-26T18:29:11.161Z,64.69
2017-10-26T18:31:39.229Z,64.55
2017-10-26T18:34:07.731Z,64.90
2017-10-26T18:36:36.610Z,64.58
2017-10-26T18:39:04.839Z,64.46
2017-10-26T18:41:33.370Z,64.78
2017-10-26T18:44:01.129Z,64.69
2017-10-26T18:46:29.000Z,64.66
2017-10-26T18:48:57.356Z,64.85
2017-10-26T18:51:25.152Z,65.58
2017-10-26T18:53:53.303Z,65.22
2017-10-26T18:56:21.131Z,65.42
2017-10-26T18:58:49.039Z,65.08
2017-10-26T19:01:17.032Z,65.16
2017-10-26T19:03:44.775Z,65.20
2017-10-26T19:06:12.634Z,66.18
2017-10-26T19:08:41.226Z,65.73
2017-10-26T19:11:10.780Z,65.81
2017-10-26T19:13:39.026Z,66.40
2017-10-26T19:16:07.175Z,66.48
2017-10-26T19:18:34.960Z,66.09
2017-10-26T19:21:03.111Z,66.01
2017-10-26T19:23:30.937Z,65.65
2017-10-26T19:25:59.687Z,66.49
2017-10-26T19:28:27.441Z,66.61
2017-10-26T19:30:56.432Z,66.89
2017-10-26T19:33:24.493Z,66.09
2017-10-26T19:35:52.274Z,65.45
2017-10-26T19:38:20.530Z,65.29
2017-10-26T19:40:48.464Z,65.33
2017-10-26T19:43:16.281Z,65.55
2017-10-26T19:45:44.112Z,65.59
2017-10-26T19:48:11.795Z,65.74
2017-10-26T19:50:39.672Z,66.53
2017-10-26T19:53:07.623Z,66.86
2017-10-26T19:55:35.405Z,66.90
2017-10-26T19:58:03.166Z,66.50
2017-10-26T20:00:31.125Z,66.21
2017-10-26T20:02:58.886Z,66.32
2017-10-26T20:05:26.554Z,66.78
2017-10-26T20:07:54.413Z,67.15
2017-10-26T20:10:22.013Z,67.02
2017-10-26T20:12:49.667Z,66.68
2017-10-26T20:15:17.607Z,66.54
2017-10-26T20:17:46.299Z,66.42
2017-10-26T20:20:13.949Z,67.00
2017-10-26T20:22:43.052Z,67.04
2017-10-26T20:25:10.810Z,66.90
2017-10-26T20:27:38.580Z,66.99
2017-10-26T20:30:06.543Z,66.88
2017-10-26T20:32:35.212Z,67.03
2017-10-26T20:35:03.031Z,67.03
2017-10-26T20:37:30.932Z,66.97
2017-10-26T20:39:58.572Z,66.94
2017-10-26T20:42:26.131Z,67.26
2017-10-26T20:44:53.800Z,67.29
2017-10-26T20:47:21.510Z,67.92
2017-10-26T20:49:55.208Z,67.65
2017-10-26T20:52:28.406Z,67.57
2017-10-26T20:55:01.474Z,67.42
2017-10-26T20:57:34.421Z,67.65
2017-10-26T21:00:07.743Z,67.91
2017-10-26T21:02:41.178Z,67.84
2017-10-26T21:05:15.022Z,68.36
2017-10-26T21:07:48.368Z,68.32
2017-10-26T21:10:21.747Z,68.58
2017-10-26T21:12:55.084Z,67.78
2017-10-26T21:15:22.834Z,67.93
2017-10-26T21:17:50.482Z,67.80
2017-10-26T21:20:18.040Z,67.68
2017-10-26T21:22:45.692Z,68.01
2017-10-26T21:25:13.264Z,67.47
2017-10-26T21:27:40.818Z,67.73
2017-10-26T21:30:08.583Z,69.00
2017-10-26T21:32:36.149Z,67.81
2017-10-26T21:35:03.684Z,67.91
2017-10-26T21:37:31.239Z,67.92
2017-10-26T21:39:58.760Z,67.91
2017-10-26T21:42:26.278Z,68.13
2017-10-26T21:44:54.040Z,68.11
2017-10-26T21:47:21.617Z,68.07
2017-10-26T21:49:49.150Z,67.87
2017-10-26T21:52:16.725Z,68.17
2017-10-26T21:54:44.247Z,68.75
2017-10-26T21:57:11.772Z,68.95
2017-10-26T21:59:39.598Z,69.08
2017-10-26T22:02:07.165Z,69.38
2017-10-26T22:04:34.717Z,69.54
2017-10-26T22:07:02.486Z,69.92
2017-10-26T22:09:30.020Z,69.73
2017-10-26T22:11:57.544Z,69.09
2017-10-26T22:14:25.112Z,68.95
2017-10-26T22:16:52.652Z,68.87
2017-10-26T22:19:20.180Z,68.87
2017-10-26T22:21:48.042Z,69.26
2017-10-26T22:24:15.600Z,69.14
2017-10-26T22:26:43.166Z,69.26
2017-10-26T22:29:10.923Z,69.05
2017-10-26T22:31:38.483Z,68.30
2017-10-26T22:34:06.042Z,68.34
2017-10-26T22:36:33.783Z,68.54
2017-10-26T22:39:01.304Z,68.58
2017-10-26T22:41:28.827Z,68.78
2017-10-26T22:43:56.387Z,69.54
2017-10-26T22:46:24.144Z,68.89
2017-10-26T22:48:51.734Z,68.24
2017-10-26T22:51:19.311Z,68.04
2017-10-26T22:53:46.840Z,67.64
2017-10-26T22:56:14.428Z,67.27
2017-10-26T22:58:42.147Z,67.01
2017-10-26T23:01:09.703Z,67.04
2017-10-26T23:03:37.271Z,66.93
2017-10-26T23:06:04.852Z,66.82
2017-10-26T23:08:32.372Z,66.70
2017-10-26T23:10:59.903Z,66.66
2017-10-26T23:13:27.908Z,66.46
2017-10-26T23:15:55.469Z,66.36
2017-10-26T23:18:23.027Z,66.15
2017-10-26T23:20:50.894Z,65.77
2017-10-26T23:23:18.453Z,65.99
2017-10-26T23:25:46.012Z,65.77
2017-10-26T23:28:13.863Z,65.62
2017-10-26T23:30:41.397Z,65.79
2017-10-26T23:33:08.915Z,66.40
2017-10-26T23:35:36.645Z,65.76
2017-10-26T23:38:04.219Z,65.74
2017-10-26T23:40:31.746Z,65.71
2017-10-26T23:42:59.541Z,65.76
2017-10-26T23:45:27.070Z,65.81
2017-10-26T23:47:54.592Z,66.06
2017-10-26T23:50:22.319Z,66.24
2017-10-26T23:52:49.879Z,65.91
2017-10-26T23:55:17.437Z,66.32
2017-10-26T23:57:45.315Z,66.52
